createdAt,value
2023-01-17T00:02:15.197Z,86.81
2023-01-17T00:05:01.650Z,86.74
2023-01-17T00:07:47.645Z,86.92
2023-01-17T00:10:18.486Z,87.06
2023-01-17T00:13:01.872Z,87.38
2023-01-17T00:15:31.164Z,87.64
2023-01-17T00:17:59.498Z,87.57
2023-01-17T00:20:48.449Z,87.82
2023-01-17T00:23:38.222Z,87.94
2023-01-17T00:26:26.482Z,87.86
2023-01-17T00:28:53.762Z,88.08
2023-01-17T00:31:21.205Z,87.90
2023-01-17T00:33:48.162Z,87.71
2023-01-17T00:36:15.282Z,87.50
2023-01-17T00:38:42.642Z,87.62
2023-01-17T00:41:15.142Z,87.39
2023-01-17T00:44:01.162Z,87.21
2023-01-17T00:46:46.870Z,87.21
2023-01-17T00:49:32.642Z,87.05
2023-01-17T00:52:18.892Z,87.36
2023-01-17T00:55:04.310Z,87.31
2023-01-17T00:57:50.186Z,87.27
2023-01-17T01:00:39.327Z,86.81
2023-01-17T01:03:30.758Z,87.13
2023-01-17T01:06:16.860Z,87.05
2023-01-17T01:09:02.957Z,87.07
2023-01-17T01:11:49.208Z,87.27
2023-01-17T01:14:35.682Z,87.74
2023-01-17T01:17:22.081Z,88.29
2023-01-17T01:20:08.269Z,88.67
2023-01-17T01:22:54.227Z,89.03
2023-01-17T01:25:40.527Z,88.70
2023-01-17T01:28:30.894Z,88.33
2023-01-17T01:31:21.305Z,88.39
2023-01-17T01:33:48.839Z,88.22
2023-01-17T01:36:15.809Z,88.32
2023-01-17T01:38:43.126Z,88.51
2023-01-17T01:41:10.242Z,88.40
2023-01-17T01:43:44.412Z,87.85
2023-01-17T01:46:37.045Z,88.08
2023-01-17T01:49:12.506Z,87.80
2023-01-17T01:51:43.644Z,88.06
2023-01-17T01:54:34.148Z,88.24
2023-01-17T01:57:06.101Z,88.40
2023-01-17T01:59:35.168Z,87.88
2023-01-17T02:02:02.864Z,87.93
2023-01-17T02:04:29.898Z,88.08
2023-01-17T02:07:13.602Z,87.98
2023-01-17T02:09:41.442Z,88.22
2023-01-17T02:12:10.516Z,88.28
2023-01-17T02:14:37.740Z,88.10
2023-01-17T02:17:16.151Z,87.73
2023-01-17T02:20:02.066Z,87.71
2023-01-17T02:23:05.022Z,87.51
2023-01-17T02:25:43.414Z,87.47
2023-01-17T02:28:26.805Z,87.33
2023-01-17T02:31:05.359Z,87.81
2023-01-17T02:33:53.690Z,87.45
2023-01-17T02:36:26.569Z,87.35
2023-01-17T02:39:05.851Z,87.37
2023-01-17T02:41:46.295Z,87.17
2023-01-17T02:44:18.565Z,87.20
2023-01-17T02:47:28.125Z,87.27
2023-01-17T02:50:01.777Z,87.34
2023-01-17T02:52:50.354Z,87.76
2023-01-17T02:55:42.208Z,87.63
2023-01-17T02:58:24.906Z,87.59
2023-01-17T03:01:07.904Z,87.58
2023-01-17T03:04:10.328Z,87.75
2023-01-17T03:06:45.085Z,87.70
2023-01-17T03:09:15.079Z,87.71
2023-01-17T03:11:43.299Z,87.80
2023-01-17T03:14:10.341Z,87.62
2023-01-17T03:16:37.326Z,87.70
2023-01-17T03:19:04.841Z,87.64
2023-01-17T03:21:31.803Z,87.82
2023-01-17T03:23:58.746Z,87.64
2023-01-17T03:26:25.683Z,87.40
2023-01-17T03:28:52.644Z,87.51
2023-01-17T03:31:22.358Z,87.72
2023-01-17T03:33:49.371Z,87.44
2023-01-17T03:36:16.444Z,87.60
2023-01-17T03:38:43.365Z,87.43
2023-01-17T03:41:10.332Z,87.65
2023-01-17T03:43:37.503Z,87.48
2023-01-17T03:46:07.432Z,87.68
2023-01-17T03:48:34.727Z,87.93
2023-01-17T03:51:01.763Z,87.82
2023-01-17T03:53:28.723Z,87.63
2023-01-17T03:55:55.545Z,87.55
2023-01-17T03:58:22.374Z,87.48
2023-01-17T04:00:49.388Z,87.40
2023-01-17T04:03:16.366Z,87.48
2023-01-17T04:05:43.208Z,87.70
2023-01-17T04:08:10.164Z,87.65
2023-01-17T04:10:36.993Z,87.64
2023-01-17T04:13:03.970Z,87.58
2023-01-17T04:15:31.281Z,87.51
2023-01-17T04:17:58.430Z,87.49
2023-01-17T04:20:37.798Z,87.33
2023-01-17T04:23:05.912Z,87.23
2023-01-17T04:25:33.390Z,87.54
2023-01-17T04:28:02.166Z,87.46
2023-01-17T04:30:29.991Z,87.80
2023-01-17T04:32:57.907Z,87.97
2023-01-17T04:35:25.464Z,88.32
2023-01-17T04:37:53.254Z,88.44
2023-01-17T04:40:20.685Z,88.45
2023-01-17T04:42:48.720Z,88.27
2023-01-17T04:45:16.381Z,87.96
2023-01-17T04:47:43.303Z,87.89
2023-01-17T04:50:11.622Z,87.72
2023-01-17T04:52:38.609Z,87.65
2023-01-17T04:55:06.876Z,87.36
2023-01-17T04:57:33.745Z,87.26
2023-01-17T05:00:00.633Z,87.56
2023-01-17T05:02:27.496Z,87.39
2023-01-17T05:04:54.856Z,87.51
2023-01-17T05:07:21.764Z,87.39
2023-01-17T05:09:48.723Z,87.66
2023-01-17T05:12:15.684Z,87.46
2023-01-17T05:14:42.690Z,87.62
2023-01-17T05:17:20.953Z,87.58
2023-01-17T05:19:48.151Z,87.52
2023-01-17T05:22:15.671Z,87.59
2023-01-17T05:24:47.225Z,87.51
2023-01-17T05:27:15.454Z,87.77
2023-01-17T05:29:42.677Z,87.58
2023-01-17T05:32:10.096Z,87.79
2023-01-17T05:34:37.443Z,87.81
2023-01-17T05:37:04.537Z,87.56
2023-01-17T05:39:31.469Z,87.52
2023-01-17T05:41:59.949Z,87.26
2023-01-17T05:44:28.356Z,87.42
2023-01-17T05:46:56.601Z,87.43
2023-01-17T05:49:24.651Z,87.62
2023-01-17T05:51:54.728Z,87.58
2023-01-17T05:54:22.407Z,87.79
2023-01-17T05:56:49.535Z,87.71
2023-01-17T05:59:20.545Z,87.67
2023-01-17T06:01:54.849Z,87.79
2023-01-17T06:04:22.250Z,87.84
2023-01-17T06:06:49.362Z,87.79
2023-01-17T06:09:16.401Z,87.66
2023-01-17T06:11:43.635Z,87.68
2023-01-17T06:14:10.688Z,87.62
2023-01-17T06:16:37.733Z,87.56
2023-01-17T06:19:04.683Z,87.46
2023-01-17T06:21:31.771Z,87.38
2023-01-17T06:23:58.864Z,87.38
2023-01-17T06:26:25.843Z,87.25
2023-01-17T06:28:53.160Z,86.90
2023-01-17T06:31:20.252Z,87.18
2023-01-17T06:33:47.610Z,87.05
2023-01-17T06:36:14.607Z,87.14
2023-01-17T06:38:41.557Z,86.95
2023-01-17T06:41:10.229Z,87.18
2023-01-17T06:43:37.495Z,87.15
2023-01-17T06:46:05.069Z,87.06
2023-01-17T06:48:32.289Z,87.30
2023-01-17T06:50:59.333Z,87.41
2023-01-17T06:53:26.367Z,87.41
2023-01-17T06:55:58.107Z,87.58
2023-01-17T06:58:25.292Z,87.48
2023-01-17T07:00:52.763Z,87.50
2023-01-17T07:03:25.622Z,87.25
2023-01-17T07:05:53.586Z,87.43
2023-01-17T07:08:20.955Z,87.15
2023-01-17T07:10:49.127Z,87.14
2023-01-17T07:13:16.774Z,87.16
2023-01-17T07:15:44.173Z,87.05
2023-01-17T07:18:11.273Z,87.27
2023-01-17T07:20:38.922Z,87.14
2023-01-17T07:23:06.603Z,87.05
2023-01-17T07:25:34.170Z,86.98
2023-01-17T07:28:01.197Z,87.19
2023-01-17T07:30:28.490Z,87.10
2023-01-17T07:32:56.748Z,87.28
2023-01-17T07:35:26.978Z,87.40
2023-01-17T07:37:55.145Z,87.43
2023-01-17T07:40:23.061Z,87.42
2023-01-17T07:42:50.483Z,87.38
2023-01-17T07:45:17.584Z,87.48
2023-01-17T07:47:45.052Z,87.29
2023-01-17T07:50:13.967Z,87.07
2023-01-17T07:52:41.126Z,87.19
2023-01-17T07:55:09.336Z,87.09
2023-01-17T07:57:36.645Z,86.88
2023-01-17T08:00:05.359Z,86.73
2023-01-17T08:02:32.618Z,86.67
2023-01-17T08:04:59.844Z,86.55
2023-01-17T08:07:26.967Z,86.97
2023-01-17T08:09:55.143Z,86.81
2023-01-17T08:12:22.139Z,86.61
2023-01-17T08:14:49.449Z,86.57
2023-01-17T08:17:17.460Z,86.50
2023-01-17T08:19:45.405Z,86.63
2023-01-17T08:22:12.750Z,86.65
2023-01-17T08:24:39.739Z,86.75
2023-01-17T08:27:07.207Z,86.81
2023-01-17T08:29:34.189Z,86.82
2023-01-17T08:32:01.210Z,86.55
2023-01-17T08:34:28.378Z,86.37
2023-01-17T08:36:55.772Z,86.42
2023-01-17T08:39:22.687Z,86.28
2023-01-17T08:41:49.937Z,86.26
2023-01-17T08:44:16.911Z,86.22
2023-01-17T08:46:45.193Z,86.17
2023-01-17T08:49:12.741Z,86.07
2023-01-17T08:51:40.507Z,85.81
2023-01-17T08:54:07.799Z,85.82
2023-01-17T08:56:35.862Z,85.72
2023-01-17T08:59:03.514Z,86.00
2023-01-17T09:01:30.737Z,85.85
2023-01-17T09:03:57.940Z,86.05
2023-01-17T09:06:24.752Z,86.13
2023-01-17T09:08:52.551Z,85.94
2023-01-17T09:11:19.808Z,86.04
2023-01-17T09:13:46.870Z,86.23
2023-01-17T09:16:13.985Z,86.15
2023-01-17T09:18:41.132Z,85.92
2023-01-17T09:21:17.041Z,85.91
2023-01-17T09:23:45.087Z,85.69
2023-01-17T09:26:32.711Z,85.86
2023-01-17T09:28:59.755Z,85.72
2023-01-17T09:31:28.135Z,85.79
2023-01-17T09:33:56.901Z,85.89
2023-01-17T09:36:29.106Z,85.60
2023-01-17T09:38:58.463Z,85.79
2023-01-17T09:41:30.815Z,85.80
2023-01-17T09:44:06.600Z,84.83
2023-01-17T09:46:40.609Z,83.92
2023-01-17T09:49:13.488Z,83.39
2023-01-17T09:51:42.569Z,82.00
2023-01-17T09:54:24.254Z,81.56
2023-01-17T09:57:18.143Z,80.81
2023-01-17T10:00:04.179Z,80.44
2023-01-17T10:03:11.168Z,79.88
2023-01-17T10:05:58.815Z,78.85
2023-01-17T10:08:44.936Z,78.29
2023-01-17T10:11:30.207Z,76.85
2023-01-17T10:14:03.221Z,73.32
2023-01-17T10:16:48.151Z,71.75
2023-01-17T10:19:32.075Z,71.91
2023-01-17T10:22:09.270Z,70.27
2023-01-17T10:25:05.015Z,68.57
2023-01-17T10:28:00.232Z,68.21
2023-01-17T10:30:43.882Z,65.53
2023-01-17T10:33:21.780Z,65.85
2023-01-17T10:35:54.084Z,62.81
2023-01-17T10:38:32.954Z,63.59
2023-01-17T10:41:06.264Z,62.48
2023-01-17T10:43:45.936Z,59.83
2023-01-17T10:46:20.446Z,60.64
2023-01-17T10:48:50.861Z,59.44
2023-01-17T10:51:50.290Z,58.46
2023-01-17T10:54:45.601Z,58.50
2023-01-17T10:57:25.997Z,60.18
2023-01-17T10:59:54.498Z,57.54
2023-01-17T11:02:30.376Z,57.17
2023-01-17T11:05:03.912Z,54.52
2023-01-17T11:07:31.540Z,55.36
2023-01-17T11:09:59.669Z,55.91
2023-01-17T11:12:34.054Z,55.54
2023-01-17T11:15:27.671Z,54.66
2023-01-17T11:18:17.262Z,54.24
2023-01-17T11:20:45.279Z,53.71
2023-01-17T11:23:27.116Z,53.64
2023-01-17T11:26:03.052Z,52.96
2023-01-17T11:28:32.745Z,51.97
2023-01-17T11:31:09.437Z,50.83
2023-01-17T11:33:45.642Z,48.54
2023-01-17T11:36:32.154Z,50.19
2023-01-17T11:39:04.986Z,49.97
2023-01-17T11:41:41.543Z,49.25
2023-01-17T11:44:22.065Z,48.92
2023-01-17T11:47:07.643Z,48.20
2023-01-17T11:49:34.593Z,47.22
2023-01-17T11:52:08.195Z,46.97
2023-01-17T11:54:40.850Z,46.07
2023-01-17T11:57:21.541Z,45.60
2023-01-17T11:59:49.096Z,45.52
2023-01-17T12:03:07.066Z,45.93
2023-01-17T12:06:08.899Z,46.13
2023-01-17T12:08:39.634Z,44.67
2023-01-17T12:11:23.343Z,44.27
2023-01-17T12:14:23.324Z,43.90
2023-01-17T12:16:50.406Z,44.49
2023-01-17T12:19:54.978Z,44.90
2023-01-17T12:22:48.383Z,43.55
2023-01-17T12:25:28.775Z,43.80
2023-01-17T12:28:35.222Z,44.27
2023-01-17T12:31:19.720Z,41.43
2023-01-17T12:33:55.860Z,41.76
2023-01-17T12:36:31.339Z,41.92
2023-01-17T12:39:03.803Z,41.69
2023-01-17T12:41:40.295Z,41.45
2023-01-17T12:44:11.871Z,40.61
2023-01-17T12:46:49.292Z,40.65
2023-01-17T12:49:35.299Z,41.36
2023-01-17T12:52:34.267Z,41.65
2023-01-17T12:55:12.350Z,42.06
2023-01-17T12:57:45.681Z,41.69
2023-01-17T13:00:25.740Z,40.93
2023-01-17T13:03:27.866Z,41.00
2023-01-17T13:05:58.076Z,41.56
2023-01-17T13:08:47.065Z,41.29
2023-01-17T13:11:53.482Z,41.01
2023-01-17T13:14:20.912Z,41.57
2023-01-17T13:16:59.171Z,41.14
2023-01-17T13:20:01.943Z,41.20
2023-01-17T13:22:30.740Z,40.59
2023-01-17T13:25:09.386Z,40.81
2023-01-17T13:28:03.483Z,41.22
2023-01-17T13:30:43.769Z,41.72
2023-01-17T13:34:07.740Z,40.89
2023-01-17T13:36:50.916Z,41.33
2023-01-17T13:39:42.979Z,40.56
2023-01-17T13:42:18.993Z,40.74
2023-01-17T13:44:46.938Z,40.79
2023-01-17T13:47:19.701Z,41.47
2023-01-17T13:49:50.098Z,42.32
2023-01-17T13:52:19.909Z,42.83
2023-01-17T13:54:53.958Z,43.39
2023-01-17T13:57:28.536Z,44.31
2023-01-17T13:59:58.321Z,45.47
2023-01-17T14:02:38.787Z,46.03
2023-01-17T14:05:10.701Z,47.37
2023-01-17T14:07:48.309Z,47.77
2023-01-17T14:10:31.598Z,48.52
2023-01-17T14:12:59.598Z,49.17
2023-01-17T14:15:30.229Z,49.40
2023-01-17T14:18:06.473Z,49.95
2023-01-17T14:20:43.276Z,50.65
2023-01-17T14:23:34.217Z,50.97
2023-01-17T14:26:19.979Z,51.91
2023-01-17T14:28:47.297Z,52.14
2023-01-17T14:31:17.672Z,52.47
2023-01-17T14:33:45.070Z,53.10
2023-01-17T14:36:25.793Z,53.31
2023-01-17T14:38:53.101Z,53.83
2023-01-17T14:41:26.625Z,53.78
2023-01-17T14:43:55.204Z,54.41
2023-01-17T14:46:33.132Z,54.66
2023-01-17T14:49:04.333Z,54.88
2023-01-17T14:51:35.519Z,55.49
2023-01-17T14:54:06.737Z,56.19
2023-01-17T14:56:34.485Z,56.61
2023-01-17T14:59:17.684Z,56.92
2023-01-17T15:02:06.117Z,57.07
2023-01-17T15:04:40.015Z,57.38
2023-01-17T15:07:08.157Z,57.51
2023-01-17T15:09:37.858Z,58.01
2023-01-17T15:12:08.723Z,58.26
2023-01-17T15:14:40.486Z,58.34
2023-01-17T15:17:24.925Z,58.39
2023-01-17T15:20:15.927Z,58.58
2023-01-17T15:22:43.771Z,58.69
2023-01-17T15:25:13.027Z,58.89
2023-01-17T15:27:41.529Z,60.03
2023-01-17T15:30:13.721Z,60.25
2023-01-17T15:32:40.800Z,60.86
2023-01-17T15:35:18.298Z,62.09
2023-01-17T15:37:45.454Z,62.42
2023-01-17T15:40:20.533Z,63.19
2023-01-17T15:42:51.081Z,62.99
2023-01-17T15:45:28.330Z,63.17
2023-01-17T15:47:59.547Z,63.59
2023-01-17T15:50:31.238Z,63.31
2023-01-17T15:53:07.242Z,63.53
2023-01-17T15:55:53.749Z,63.70
2023-01-17T15:58:35.136Z,64.39
2023-01-17T16:01:02.743Z,65.24
2023-01-17T16:03:31.252Z,65.60
2023-01-17T16:06:01.018Z,65.81
2023-01-17T16:08:31.416Z,66.11
2023-01-17T16:11:06.426Z,66.45
2023-01-17T16:13:38.850Z,66.47
2023-01-17T16:16:19.619Z,66.15
2023-01-17T16:18:48.942Z,66.02
2023-01-17T16:21:22.964Z,66.39
2023-01-17T16:23:50.367Z,66.77
2023-01-17T16:26:17.770Z,66.16
2023-01-17T16:28:46.127Z,65.84
2023-01-17T16:31:19.200Z,66.00
2023-01-17T16:33:50.998Z,65.98
2023-01-17T16:36:18.343Z,66.31
2023-01-17T16:38:48.712Z,66.28
2023-01-17T16:41:15.753Z,66.20
2023-01-17T16:43:43.117Z,66.05
2023-01-17T16:46:12.143Z,67.08
2023-01-17T16:48:39.758Z,66.89
2023-01-17T16:51:08.202Z,66.85
2023-01-17T16:53:36.791Z,67.34
2023-01-17T16:56:12.395Z,67.22
2023-01-17T16:58:40.932Z,67.57
2023-01-17T17:01:16.626Z,67.72
2023-01-17T17:03:44.869Z,67.55
2023-01-17T17:06:18.734Z,67.63
2023-01-17T17:08:59.784Z,68.12
2023-01-17T17:11:34.701Z,68.33
2023-01-17T17:14:02.839Z,68.34
2023-01-17T17:16:30.954Z,68.52
2023-01-17T17:19:00.570Z,68.19
2023-01-17T17:21:30.032Z,68.14
2023-01-17T17:23:59.416Z,68.05
2023-01-17T17:26:37.429Z,67.85
2023-01-17T17:29:06.534Z,68.05
2023-01-17T17:31:34.244Z,68.36
2023-01-17T17:34:02.459Z,69.57
2023-01-17T17:36:32.556Z,69.27
2023-01-17T17:38:59.561Z,69.16
2023-01-17T17:41:35.103Z,68.69
2023-01-17T17:44:04.188Z,68.85
2023-01-17T17:46:32.163Z,68.73
2023-01-17T17:49:00.175Z,68.86
2023-01-17T17:51:30.890Z,69.06
2023-01-17T17:54:06.772Z,69.06
2023-01-17T17:56:35.239Z,69.35
2023-01-17T17:59:04.186Z,69.39
2023-01-17T18:01:31.746Z,69.44
2023-01-17T18:04:03.304Z,69.78
2023-01-17T18:06:31.232Z,69.51
2023-01-17T18:09:13.951Z,69.40
2023-01-17T18:11:43.346Z,69.50
2023-01-17T18:14:13.967Z,69.41
2023-01-17T18:16:43.880Z,69.50
2023-01-17T18:19:23.279Z,69.51
2023-01-17T18:21:51.952Z,69.45
2023-01-17T18:24:24.304Z,69.28
2023-01-17T18:26:52.833Z,69.44
2023-01-17T18:29:22.148Z,69.75
2023-01-17T18:31:50.537Z,69.33
2023-01-17T18:34:23.369Z,69.46
2023-01-17T18:36:52.190Z,69.94
2023-01-17T18:39:22.450Z,70.34
2023-01-17T18:41:50.267Z,70.59
2023-01-17T18:44:19.192Z,70.69
2023-01-17T18:46:48.485Z,71.06
2023-01-17T18:49:21.806Z,70.81
2023-01-17T18:51:51.726Z,71.39
2023-01-17T18:54:20.965Z,71.68
2023-01-17T18:56:48.570Z,71.42
2023-01-17T18:59:18.755Z,71.19
2023-01-17T19:01:46.351Z,71.43
2023-01-17T19:04:15.290Z,71.63
2023-01-17T19:06:44.753Z,71.72
2023-01-17T19:09:13.871Z,71.75
2023-01-17T19:11:43.390Z,72.04
2023-01-17T19:14:12.856Z,72.64
2023-01-17T19:16:42.010Z,72.80
2023-01-17T19:19:12.476Z,72.58
2023-01-17T19:21:40.099Z,72.76
2023-01-17T19:24:07.865Z,72.91
2023-01-17T19:26:35.093Z,72.57
2023-01-17T19:29:05.738Z,72.30
2023-01-17T19:31:39.937Z,72.74
2023-01-17T19:34:07.234Z,72.84
2023-01-17T19:36:36.611Z,72.72
2023-01-17T19:39:06.892Z,72.48
2023-01-17T19:41:36.467Z,72.24
2023-01-17T19:44:07.703Z,72.57
2023-01-17T19:46:36.121Z,72.43
2023-01-17T19:49:04.679Z,72.95
2023-01-17T19:51:44.206Z,72.86
2023-01-17T19:54:16.127Z,72.93
2023-01-17T19:56:43.618Z,72.90
2023-01-17T19:59:13.415Z,72.85
2023-01-17T20:01:40.721Z,72.86
2023-01-17T20:04:08.261Z,73.00
2023-01-17T20:06:36.858Z,73.44
2023-01-17T20:09:05.848Z,73.54
2023-01-17T20:11:33.347Z,73.34
2023-01-17T20:14:01.056Z,73.42
2023-01-17T20:16:30.462Z,73.09
2023-01-17T20:18:59.493Z,72.97
2023-01-17T20:21:28.474Z,73.23
2023-01-17T20:23:58.032Z,73.29
2023-01-17T20:26:31.475Z,73.21
2023-01-17T20:28:59.023Z,73.41
2023-01-17T20:31:27.702Z,73.17
2023-01-17T20:33:56.284Z,73.32
2023-01-17T20:36:26.900Z,73.22
2023-01-17T20:38:54.891Z,73.17
2023-01-17T20:41:29.191Z,73.43
2023-01-17T20:43:58.518Z,73.79
2023-01-17T20:46:27.518Z,73.43
2023-01-17T20:48:56.741Z,73.33
2023-01-17T20:51:26.717Z,73.35
2023-01-17T20:54:03.001Z,73.23
2023-01-17T20:56:34.912Z,73.42
2023-01-17T20:59:07.862Z,73.24
2023-01-17T21:01:35.812Z,72.96
2023-01-17T21:04:03.638Z,73.09
2023-01-17T21:06:31.470Z,73.14
2023-01-17T21:09:00.397Z,73.21
2023-01-17T21:11:28.247Z,73.19
2023-01-17T21:13:56.486Z,73.76
2023-01-17T21:16:24.212Z,73.69
2023-01-17T21:18:52.560Z,73.62
2023-01-17T21:21:22.358Z,73.68
2023-01-17T21:23:51.291Z,73.22
2023-01-17T21:26:19.982Z,73.54
2023-01-17T21:28:48.761Z,73.47
2023-01-17T21:31:23.466Z,73.76
2023-01-17T21:34:11.507Z,73.87
2023-01-17T21:36:40.909Z,74.06
2023-01-17T21:39:16.502Z,74.00
2023-01-17T21:41:46.228Z,74.39
2023-01-17T21:44:20.396Z,74.54
2023-01-17T21:46:48.781Z,74.92
2023-01-17T21:49:16.099Z,74.74
2023-01-17T21:52:04.337Z,74.67
2023-01-17T21:54:50.865Z,74.86
2023-01-17T21:57:39.938Z,74.84
2023-01-17T22:00:12.414Z,74.96
2023-01-17T22:02:40.210Z,74.65
2023-01-17T22:05:09.214Z,74.43
2023-01-17T22:07:36.538Z,74.62
2023-01-17T22:10:03.514Z,74.84
2023-01-17T22:12:30.497Z,74.61
2023-01-17T22:14:57.601Z,74.90
2023-01-17T22:17:24.854Z,74.86
2023-01-17T22:19:51.936Z,75.00
2023-01-17T22:22:19.057Z,75.68
2023-01-17T22:24:46.088Z,76.04
2023-01-17T22:27:14.189Z,76.71
2023-01-17T22:29:41.516Z,77.44
2023-01-17T22:32:08.817Z,77.37
2023-01-17T22:34:36.214Z,77.44
2023-01-17T22:37:04.983Z,77.44
2023-01-17T22:39:32.156Z,77.50
2023-01-17T22:42:00.065Z,77.36
2023-01-17T22:44:27.272Z,77.82
2023-01-17T22:46:54.102Z,78.39
2023-01-17T22:49:23.853Z,79.19
2023-01-17T22:51:51.303Z,79.95
2023-01-17T22:54:19.777Z,79.87
2023-01-17T22:56:47.067Z,79.30
2023-01-17T22:59:14.182Z,80.49
2023-01-17T23:01:41.317Z,80.31
2023-01-17T23:04:12.264Z,79.35
2023-01-17T23:06:40.344Z,79.13
2023-01-17T23:09:11.164Z,80.59
2023-01-17T23:11:39.642Z,80.29
2023-01-17T23:14:23.443Z,79.99
2023-01-17T23:17:21.211Z,79.99
2023-01-17T23:19:51.323Z,80.24
2023-01-17T23:22:23.874Z,80.34
2023-01-17T23:25:02.577Z,80.05
2023-01-17T23:27:57.783Z,80.25
2023-01-17T23:30:34.896Z,80.43
2023-01-17T23:33:11.561Z,80.28
2023-01-17T23:35:42.070Z,80.96
2023-01-17T23:38:27.166Z,81.29
2023-01-17T23:41:22.413Z,81.39
2023-01-17T23:43:53.833Z,81.17
2023-01-17T23:46:21.865Z,81.80
2023-01-17T23:48:49.618Z,82.17
2023-01-17T23:51:16.708Z,82.70
2023-01-17T23:53:43.745Z,82.89
2023-01-17T23:56:15.472Z,83.51
2023-01-17T23:58:42.341Z,83.67
